sensor_id;sensor_type;location;lat;lon;timestamp;temperature;humidity
52139;DHT22;38131;53.256;6.460;2023-05-16T00:02:04;8.80;99.90
52139;DHT22;38131;53.256;6.460;2023-05-16T00:04:30;8.70;99.90
52139;DHT22;38131;53.256;6.460;2023-05-16T00:06:58;8.70;99.90
52139;DHT22;38131;53.256;6.460;2023-05-16T00:09:24;8.80;99.90
52139;DHT22;38131;53.256;6.460;2023-05-16T00:11:50;8.70;99.90
52139;DHT22;38131;53.256;6.460;2023-05-16T00:14:16;8.70;99.90
52139;DHT22;38131;53.256;6.460;2023-05-16T00:16:43;8.60;99.90
52139;DHT22;38131;53.256;6.460;2023-05-16T00:19:10;8.60;99.90
52139;DHT22;38131;53.256;6.460;2023-05-16T00:21:38;8.70;99.90
52139;DHT22;38131;53.256;6.460;2023-05-16T00:24:04;8.60;99.90
52139;DHT22;38131;53.256;6.460;2023-05-16T00:26:30;8.60;99.90
52139;DHT22;38131;53.256;6.460;2023-05-16T00:29:03;8.50;99.90
52139;DHT22;38131;53.256;6.460;2023-05-16T00:31:29;8.50;99.90
52139;DHT22;38131;53.256;6.460;2023-05-16T00:33:56;8.40;99.90
52139;DHT22;38131;53.256;6.460;2023-05-16T00:36:22;8.50;99.90
52139;DHT22;38131;53.256;6.460;2023-05-16T00:38:48;8.40;99.90
52139;DHT22;38131;53.256;6.460;2023-05-16T00:41:15;8.40;99.90
52139;DHT22;38131;53.256;6.460;2023-05-16T00:43:47;8.40;99.90
52139;DHT22;38131;53.256;6.460;2023-05-16T00:46:12;8.30;99.90
52139;DHT22;38131;53.256;6.460;2023-05-16T00:48:38;8.30;99.90
52139;DHT22;38131;53.256;6.460;2023-05-16T00:51:31;8.40;99.90
52139;DHT22;38131;53.256;6.460;2023-05-16T00:53:57;9.20;99.90
52139;DHT22;38131;53.256;6.460;2023-05-16T00:56:23;8.40;99.90
52139;DHT22;38131;53.256;6.460;2023-05-16T00:58:49;8.30;99.90
52139;DHT22;38131;53.256;6.460;2023-05-16T01:01:15;8.30;99.90
52139;DHT22;38131;53.256;6.460;2023-05-16T01:03:41;8.40;99.90
52139;DHT22;38131;53.256;6.460;2023-05-16T01:06:10;8.40;99.90
52139;DHT22;38131;53.256;6.460;2023-05-16T01:08:37;8.30;99.90
52139;DHT22;38131;53.256;6.460;2023-05-16T01:28:15;8.40;99.90
52139;DHT22;38131;53.256;6.460;2023-05-16T01:30:42;8.40;99.90
52139;DHT22;38131;53.256;6.460;2023-05-16T01:33:08;8.50;99.90
52139;DHT22;38131;53.256;6.460;2023-05-16T01:36:10;8.50;99.90
52139;DHT22;38131;53.256;6.460;2023-05-16T01:38:45;8.50;99.90
52139;DHT22;38131;53.256;6.460;2023-05-16T01:41:21;7.60;99.90
52139;DHT22;38131;53.256;6.460;2023-05-16T01:43:52;9.30;99.90
52139;DHT22;38131;53.256;6.460;2023-05-16T01:46:24;8.50;99.90
52139;DHT22;38131;53.256;6.460;2023-05-16T01:49:19;8.40;99.90
52139;DHT22;38131;53.256;6.460;2023-05-16T01:52:10;8.50;99.90
52139;DHT22;38131;53.256;6.460;2023-05-16T01:54:40;8.40;99.90
52139;DHT22;38131;53.256;6.460;2023-05-16T01:57:08;8.40;99.90
52139;DHT22;38131;53.256;6.460;2023-05-16T01:59:34;8.40;99.90
52139;DHT22;38131;53.256;6.460;2023-05-16T02:02:01;8.40;99.90
52139;DHT22;38131;53.256;6.460;2023-05-16T02:04:26;8.40;99.90
52139;DHT22;38131;53.256;6.460;2023-05-16T02:06:52;8.30;99.90
52139;DHT22;38131;53.256;6.460;2023-05-16T02:09:18;8.30;99.90
52139;DHT22;38131;53.256;6.460;2023-05-16T02:11:44;8.40;99.90
52139;DHT22;38131;53.256;6.460;2023-05-16T02:14:14;8.40;99.90
52139;DHT22;38131;53.256;6.460;2023-05-16T02:16:40;8.30;99.90
52139;DHT22;38131;53.256;6.460;2023-05-16T02:19:06;8.40;99.90
52139;DHT22;38131;53.256;6.460;2023-05-16T02:21:31;8.40;99.90
52139;DHT22;38131;53.256;6.460;2023-05-16T02:23:57;8.40;99.90
52139;DHT22;38131;53.256;6.460;2023-05-16T02:26:23;8.50;99.90
52139;DHT22;38131;53.256;6.460;2023-05-16T02:28:49;8.40;99.90
52139;DHT22;38131;53.256;6.460;2023-05-16T02:31:28;8.40;99.90
52139;DHT22;38131;53.256;6.460;2023-05-16T02:33:54;8.40;99.90
52139;DHT22;38131;53.256;6.460;2023-05-16T02:36:20;8.40;99.90
52139;DHT22;38131;53.256;6.460;2023-05-16T02:38:46;8.40;99.90
52139;DHT22;38131;53.256;6.460;2023-05-16T02:41:12;8.40;99.90
52139;DHT22;38131;53.256;6.460;2023-05-16T02:43:37;8.40;99.90
52139;DHT22;38131;53.256;6.460;2023-05-16T02:46:04;8.40;99.90
52139;DHT22;38131;53.256;6.460;2023-05-16T02:48:30;8.40;99.90
52139;DHT22;38131;53.256;6.460;2023-05-16T02:50:56;8.40;99.90
52139;DHT22;38131;53.256;6.460;2023-05-16T02:53:22;8.50;99.90
52139;DHT22;38131;53.256;6.460;2023-05-16T02:55:48;8.40;99.90
52139;DHT22;38131;53.256;6.460;2023-05-16T02:58:14;8.40;99.90
52139;DHT22;38131;53.256;6.460;2023-05-16T03:00:45;8.40;99.90
52139;DHT22;38131;53.256;6.460;2023-05-16T03:03:11;8.40;99.90
52139;DHT22;38131;53.256;6.460;2023-05-16T03:05:47;8.50;99.90
52139;DHT22;38131;53.256;6.460;2023-05-16T03:10:48;8.40;99.90
52139;DHT22;38131;53.256;6.460;2023-05-16T03:13:14;8.40;99.90
52139;DHT22;38131;53.256;6.460;2023-05-16T03:15:40;8.30;99.90
52139;DHT22;38131;53.256;6.460;2023-05-16T03:18:06;8.30;99.90
52139;DHT22;38131;53.256;6.460;2023-05-16T03:20:41;8.30;99.90
52139;DHT22;38131;53.256;6.460;2023-05-16T03:23:07;8.20;99.90
52139;DHT22;38131;53.256;6.460;2023-05-16T03:25:36;8.20;99.90
52139;DHT22;38131;53.256;6.460;2023-05-16T03:28:04;8.20;99.90
52139;DHT22;38131;53.256;6.460;2023-05-16T03:30:31;8.20;99.90
52139;DHT22;38131;53.256;6.460;2023-05-16T03:36:02;8.20;99.90
52139;DHT22;38131;53.256;6.460;2023-05-16T03:38:28;8.20;99.90
52139;DHT22;38131;53.256;6.460;2023-05-16T03:40:55;8.20;99.90
52139;DHT22;38131;53.256;6.460;2023-05-16T03:43:22;8.10;99.90
52139;DHT22;38131;53.256;6.460;2023-05-16T03:45:48;8.20;99.90
52139;DHT22;38131;53.256;6.460;2023-05-16T03:48:15;8.10;99.90
52139;DHT22;38131;53.256;6.460;2023-05-16T03:50:41;8.10;99.90
52139;DHT22;38131;53.256;6.460;2023-05-16T03:53:08;8.10;99.90
52139;DHT22;38131;53.256;6.460;2023-05-16T03:55:34;8.10;99.90
52139;DHT22;38131;53.256;6.460;2023-05-16T03:58:01;8.10;99.90
52139;DHT22;38131;53.256;6.460;2023-05-16T04:00:27;8.20;99.90
52139;DHT22;38131;53.256;6.460;2023-05-16T04:02:53;8.10;99.90
52139;DHT22;38131;53.256;6.460;2023-05-16T04:05:19;8.10;99.90
52139;DHT22;38131;53.256;6.460;2023-05-16T04:07:53;8.10;99.90
52139;DHT22;38131;53.256;6.460;2023-05-16T04:10:19;8.10;99.90
52139;DHT22;38131;53.256;6.460;2023-05-16T04:12:48;8.10;99.90
52139;DHT22;38131;53.256;6.460;2023-05-16T04:15:14;8.10;99.90
52139;DHT22;38131;53.256;6.460;2023-05-16T04:17:40;8.10;99.90
52139;DHT22;38131;53.256;6.460;2023-05-16T04:20:06;8.10;99.90
52139;DHT22;38131;53.256;6.460;2023-05-16T04:22:32;8.10;99.90
52139;DHT22;38131;53.256;6.460;2023-05-16T04:24:58;8.20;99.90
52139;DHT22;38131;53.256;6.460;2023-05-16T04:27:24;8.20;99.90
52139;DHT22;38131;53.256;6.460;2023-05-16T04:29:51;7.30;99.90
52139;DHT22;38131;53.256;6.460;2023-05-16T04:32:17;8.30;99.90
52139;DHT22;38131;53.256;6.460;2023-05-16T04:34:44;8.20;99.90
52139;DHT22;38131;53.256;6.460;2023-05-16T04:37:11;8.20;99.90
52139;DHT22;38131;53.256;6.460;2023-05-16T04:39:37;8.20;99.90
52139;DHT22;38131;53.256;6.460;2023-05-16T04:42:03;8.20;99.90
52139;DHT22;38131;53.256;6.460;2023-05-16T04:46:55;8.30;99.90
52139;DHT22;38131;53.256;6.460;2023-05-16T04:51:48;8.30;99.90
52139;DHT22;38131;53.256;6.460;2023-05-16T04:54:14;8.30;99.90
52139;DHT22;38131;53.256;6.460;2023-05-16T04:56:46;8.40;99.90
52139;DHT22;38131;53.256;6.460;2023-05-16T04:59:12;8.30;99.90
52139;DHT22;38131;53.256;6.460;2023-05-16T05:01:39;8.40;99.90
52139;DHT22;38131;53.256;6.460;2023-05-16T05:04:05;7.80;99.90
52139;DHT22;38131;53.256;6.460;2023-05-16T05:06:31;8.40;99.90
52139;DHT22;38131;53.256;6.460;2023-05-16T05:09:06;8.50;99.90
52139;DHT22;38131;53.256;6.460;2023-05-16T05:11:32;8.50;99.90
52139;DHT22;38131;53.256;6.460;2023-05-16T05:14:00;8.50;99.90
52139;DHT22;38131;53.256;6.460;2023-05-16T05:16:29;8.60;99.90
52139;DHT22;38131;53.256;6.460;2023-05-16T05:21:23;8.70;99.90
52139;DHT22;38131;53.256;6.460;2023-05-16T05:23:50;8.80;99.90
52139;DHT22;38131;53.256;6.460;2023-05-16T05:26:43;8.90;99.90
52139;DHT22;38131;53.256;6.460;2023-05-16T05:29:12;8.90;99.90
52139;DHT22;38131;53.256;6.460;2023-05-16T05:31:39;9.00;99.90
52139;DHT22;38131;53.256;6.460;2023-05-16T05:34:10;9.10;99.90
52139;DHT22;38131;53.256;6.460;2023-05-16T05:39:13;9.10;99.90
52139;DHT22;38131;53.256;6.460;2023-05-16T05:41:42;9.10;99.90
52139;DHT22;38131;53.256;6.460;2023-05-16T05:44:08;9.20;99.90
52139;DHT22;38131;53.256;6.460;2023-05-16T05:46:34;9.30;99.90
52139;DHT22;38131;53.256;6.460;2023-05-16T05:49:00;9.40;99.90
52139;DHT22;38131;53.256;6.460;2023-05-16T05:51:28;9.50;99.90
52139;DHT22;38131;53.256;6.460;2023-05-16T05:56:58;9.70;99.90
52139;DHT22;38131;53.256;6.460;2023-05-16T05:59:24;9.80;99.90
52139;DHT22;38131;53.256;6.460;2023-05-16T06:01:50;9.80;99.90
52139;DHT22;38131;53.256;6.460;2023-05-16T06:04:38;9.90;99.90
52139;DHT22;38131;53.256;6.460;2023-05-16T06:32:45;10.90;99.90
52139;DHT22;38131;53.256;6.460;2023-05-16T06:54:43;10.30;99.90
52139;DHT22;38131;53.256;6.460;2023-05-16T08:57:12;13.50;99.90
52139;DHT22;38131;53.256;6.460;2023-05-16T08:59:44;13.60;99.90
52139;DHT22;38131;53.256;6.460;2023-05-16T09:06:27;13.90;99.90
52139;DHT22;38131;53.256;6.460;2023-05-16T09:08:59;13.60;99.90
52139;DHT22;38131;53.256;6.460;2023-05-16T09:11:29;13.00;99.90
52139;DHT22;38131;53.256;6.460;2023-05-16T09:13:57;13.00;99.90
52139;DHT22;38131;53.256;6.460;2023-05-16T09:16:25;13.30;99.90
52139;DHT22;38131;53.256;6.460;2023-05-16T09:19:00;13.00;99.90
52139;DHT22;38131;53.256;6.460;2023-05-16T09:21:34;13.00;99.90
52139;DHT22;38131;53.256;6.460;2023-05-16T09:34:47;12.10;99.90
52139;DHT22;38131;53.256;6.460;2023-05-16T09:37:26;12.60;99.90
52139;DHT22;38131;53.256;6.460;2023-05-16T09:40:40;13.00;99.90
52139;DHT22;38131;53.256;6.460;2023-05-16T09:43:23;13.50;99.90
52139;DHT22;38131;53.256;6.460;2023-05-16T09:45:52;13.80;99.90
52139;DHT22;38131;53.256;6.460;2023-05-16T09:48:20;13.50;99.90
52139;DHT22;38131;53.256;6.460;2023-05-16T09:51:36;13.20;99.90
52139;DHT22;38131;53.256;6.460;2023-05-16T09:54:33;13.80;99.90
52139;DHT22;38131;53.256;6.460;2023-05-16T09:57:08;13.70;99.90
52139;DHT22;38131;53.256;6.460;2023-05-16T09:59:42;13.90;99.90
52139;DHT22;38131;53.256;6.460;2023-05-16T10:02:24;13.50;99.90
52139;DHT22;38131;53.256;6.460;2023-05-16T10:08:14;13.90;99.90
52139;DHT22;38131;53.256;6.460;2023-05-16T10:13:52;13.60;99.90
52139;DHT22;38131;53.256;6.460;2023-05-16T10:17:05;13.80;99.90
52139;DHT22;38131;53.256;6.460;2023-05-16T10:19:43;13.70;99.90
52139;DHT22;38131;53.256;6.460;2023-05-16T10:22:41;13.80;99.90
52139;DHT22;38131;53.256;6.460;2023-05-16T10:25:33;13.90;99.90
52139;DHT22;38131;53.256;6.460;2023-05-16T10:28:37;14.10;99.90
52139;DHT22;38131;53.256;6.460;2023-05-16T10:31:09;13.90;99.90
52139;DHT22;38131;53.256;6.460;2023-05-16T10:33:44;14.10;99.90
52139;DHT22;38131;53.256;6.460;2023-05-16T10:36:20;14.10;99.90
52139;DHT22;38131;53.256;6.460;2023-05-16T10:39:22;14.00;99.90
52139;DHT22;38131;53.256;6.460;2023-05-16T10:45:17;14.10;99.90
52139;DHT22;38131;53.256;6.460;2023-05-16T10:52:14;14.10;99.90
52139;DHT22;38131;53.256;6.460;2023-05-16T10:55:04;13.80;99.90
52139;DHT22;38131;53.256;6.460;2023-05-16T10:57:43;13.60;99.90
52139;DHT22;38131;53.256;6.460;2023-05-16T11:00:21;13.60;99.90
52139;DHT22;38131;53.256;6.460;2023-05-16T11:02:49;13.60;99.90
52139;DHT22;38131;53.256;6.460;2023-05-16T11:05:21;13.60;99.90
52139;DHT22;38131;53.256;6.460;2023-05-16T11:08:04;13.60;99.90
52139;DHT22;38131;53.256;6.460;2023-05-16T11:13:09;14.30;99.90
52139;DHT22;38131;53.256;6.460;2023-05-16T11:15:38;14.30;99.90
52139;DHT22;38131;53.256;6.460;2023-05-16T11:18:08;14.40;99.90
52139;DHT22;38131;53.256;6.460;2023-05-16T11:20:41;14.20;99.90
52139;DHT22;38131;53.256;6.460;2023-05-16T11:23:20;14.10;99.90
52139;DHT22;38131;53.256;6.460;2023-05-16T11:25:57;13.50;99.90
52139;DHT22;38131;53.256;6.460;2023-05-16T11:28:25;13.50;99.90
52139;DHT22;38131;53.256;6.460;2023-05-16T11:30:57;13.40;99.90
52139;DHT22;38131;53.256;6.460;2023-05-16T11:33:29;13.20;99.90
52139;DHT22;38131;53.256;6.460;2023-05-16T11:36:07;13.20;99.90
52139;DHT22;38131;53.256;6.460;2023-05-16T11:38:33;13.50;99.90
52139;DHT22;38131;53.256;6.460;2023-05-16T11:41:08;13.80;99.90
52139;DHT22;38131;53.256;6.460;2023-05-16T11:43:46;13.50;99.90
52139;DHT22;38131;53.256;6.460;2023-05-16T11:46:15;14.00;99.90
52139;DHT22;38131;53.256;6.460;2023-05-16T11:48:45;14.00;99.90
52139;DHT22;38131;53.256;6.460;2023-05-16T11:51:18;14.20;99.90
52139;DHT22;38131;53.256;6.460;2023-05-16T11:53:54;13.60;99.90
52139;DHT22;38131;53.256;6.460;2023-05-16T11:56:20;14.30;99.90
52139;DHT22;38131;53.256;6.460;2023-05-16T11:58:48;14.30;99.90
52139;DHT22;38131;53.256;6.460;2023-05-16T12:01:15;14.70;99.90
52139;DHT22;38131;53.256;6.460;2023-05-16T12:03:41;14.30;99.90
52139;DHT22;38131;53.256;6.460;2023-05-16T12:06:09;14.30;99.90
52139;DHT22;38131;53.256;6.460;2023-05-16T12:08:38;14.10;99.90
52139;DHT22;38131;53.256;6.460;2023-05-16T12:11:06;14.10;99.90
52139;DHT22;38131;53.256;6.460;2023-05-16T12:13:40;13.30;99.90
52139;DHT22;38131;53.256;6.460;2023-05-16T12:16:06;13.40;99.90
52139;DHT22;38131;53.256;6.460;2023-05-16T12:18:35;13.80;99.90
52139;DHT22;38131;53.256;6.460;2023-05-16T12:21:04;13.60;99.90
52139;DHT22;38131;53.256;6.460;2023-05-16T12:23:32;13.50;99.90
52139;DHT22;38131;53.256;6.460;2023-05-16T12:26:03;13.60;99.90
52139;DHT22;38131;53.256;6.460;2023-05-16T12:28:34;13.70;99.90
52139;DHT22;38131;53.256;6.460;2023-05-16T12:31:09;13.60;99.90
52139;DHT22;38131;53.256;6.460;2023-05-16T12:33:36;13.50;99.90
52139;DHT22;38131;53.256;6.460;2023-05-16T12:36:02;13.50;99.90
52139;DHT22;38131;53.256;6.460;2023-05-16T12:38:29;12.60;99.90
52139;DHT22;38131;53.256;6.460;2023-05-16T12:40:58;13.00;99.90
52139;DHT22;38131;53.256;6.460;2023-05-16T12:43:24;12.80;99.90
52139;DHT22;38131;53.256;6.460;2023-05-16T12:45:54;12.60;99.90
52139;DHT22;38131;53.256;6.460;2023-05-16T12:48:21;12.50;99.90
52139;DHT22;38131;53.256;6.460;2023-05-16T12:50:49;12.40;99.90
52139;DHT22;38131;53.256;6.460;2023-05-16T12:53:16;12.40;99.90
52139;DHT22;38131;53.256;6.460;2023-05-16T12:55:55;12.60;99.90
52139;DHT22;38131;53.256;6.460;2023-05-16T12:58:33;12.80;99.90
52139;DHT22;38131;53.256;6.460;2023-05-16T13:00:59;13.00;99.90
52139;DHT22;38131;53.256;6.460;2023-05-16T13:03:32;13.20;99.90
52139;DHT22;38131;53.256;6.460;2023-05-16T13:05:59;13.20;99.90
52139;DHT22;38131;53.256;6.460;2023-05-16T13:08:31;13.20;99.90
52139;DHT22;38131;53.256;6.460;2023-05-16T13:10:59;13.60;99.90
52139;DHT22;38131;53.256;6.460;2023-05-16T13:13:28;13.50;99.90
52139;DHT22;38131;53.256;6.460;2023-05-16T13:16:01;13.50;99.90
52139;DHT22;38131;53.256;6.460;2023-05-16T13:19:03;13.40;99.90
52139;DHT22;38131;53.256;6.460;2023-05-16T13:21:32;12.90;99.90
52139;DHT22;38131;53.256;6.460;2023-05-16T13:26:24;12.80;99.90
52139;DHT22;38131;53.256;6.460;2023-05-16T13:28:51;12.60;99.90
52139;DHT22;38131;53.256;6.460;2023-05-16T13:31:18;12.40;99.90
52139;DHT22;38131;53.256;6.460;2023-05-16T13:33:43;11.70;99.90
52139;DHT22;38131;53.256;6.460;2023-05-16T13:36:09;12.30;99.90
52139;DHT22;38131;53.256;6.460;2023-05-16T13:38:35;12.20;99.90
52139;DHT22;38131;53.256;6.460;2023-05-16T13:41:01;12.20;99.90
52139;DHT22;38131;53.256;6.460;2023-05-16T13:43:29;12.10;99.90
52139;DHT22;38131;53.256;6.460;2023-05-16T13:45:55;12.10;99.90
52139;DHT22;38131;53.256;6.460;2023-05-16T13:48:21;12.20;99.90
52139;DHT22;38131;53.256;6.460;2023-05-16T13:50:47;12.30;99.90
52139;DHT22;38131;53.256;6.460;2023-05-16T13:53:13;12.40;99.90
52139;DHT22;38131;53.256;6.460;2023-05-16T13:55:39;12.40;99.90
52139;DHT22;38131;53.256;6.460;2023-05-16T13:58:14;12.40;99.90
52139;DHT22;38131;53.256;6.460;2023-05-16T14:00:39;12.30;99.90
52139;DHT22;38131;53.256;6.460;2023-05-16T14:03:08;12.30;99.90
52139;DHT22;38131;53.256;6.460;2023-05-16T14:05:34;12.30;99.90
52139;DHT22;38131;53.256;6.460;2023-05-16T14:08:00;12.30;99.90
52139;DHT22;38131;53.256;6.460;2023-05-16T14:10:42;12.30;99.90
52139;DHT22;38131;53.256;6.460;2023-05-16T14:13:08;12.20;99.90
52139;DHT22;38131;53.256;6.460;2023-05-16T14:15:34;12.20;99.90
52139;DHT22;38131;53.256;6.460;2023-05-16T14:18:00;11.30;99.90
52139;DHT22;38131;53.256;6.460;2023-05-16T14:20:27;12.20;99.90
52139;DHT22;38131;53.256;6.460;2023-05-16T14:25:19;12.00;99.90
52139;DHT22;38131;53.256;6.460;2023-05-16T14:27:45;12.00;99.90
52139;DHT22;38131;53.256;6.460;2023-05-16T14:30:16;12.00;99.90
52139;DHT22;38131;53.256;6.460;2023-05-16T14:32:43;11.80;99.90
52139;DHT22;38131;53.256;6.460;2023-05-16T14:35:09;11.70;99.90
52139;DHT22;38131;53.256;6.460;2023-05-16T14:37:34;11.70;99.90
52139;DHT22;38131;53.256;6.460;2023-05-16T14:40:00;11.90;99.90
52139;DHT22;38131;53.256;6.460;2023-05-16T14:42:26;12.00;99.90
52139;DHT22;38131;53.256;6.460;2023-05-16T14:44:52;12.00;99.90
52139;DHT22;38131;53.256;6.460;2023-05-16T14:47:20;12.10;99.90
52139;DHT22;38131;53.256;6.460;2023-05-16T14:52:20;12.20;99.90
52139;DHT22;38131;53.256;6.460;2023-05-16T14:54:49;12.20;99.90
52139;DHT22;38131;53.256;6.460;2023-05-16T14:57:16;12.10;99.90
52139;DHT22;38131;53.256;6.460;2023-05-16T14:59:47;11.90;99.90
52139;DHT22;38131;53.256;6.460;2023-05-16T15:02:14;12.00;99.90
52139;DHT22;38131;53.256;6.460;2023-05-16T15:04:40;12.00;99.90
52139;DHT22;38131;53.256;6.460;2023-05-16T15:07:06;11.90;99.90
52139;DHT22;38131;53.256;6.460;2023-05-16T15:09:34;12.00;99.90
52139;DHT22;38131;53.256;6.460;2023-05-16T15:12:00;12.00;99.90
52139;DHT22;38131;53.256;6.460;2023-05-16T15:17:14;12.20;99.90
52139;DHT22;38131;53.256;6.460;2023-05-16T15:19:42;11.80;99.90
52139;DHT22;38131;53.256;6.460;2023-05-16T15:22:41;12.20;99.90
52139;DHT22;38131;53.256;6.460;2023-05-16T15:25:33;12.10;99.90
52139;DHT22;38131;53.256;6.460;2023-05-16T15:28:25;12.20;99.90
52139;DHT22;38131;53.256;6.460;2023-05-16T15:41:33;12.00;99.90
52139;DHT22;38131;53.256;6.460;2023-05-16T15:55:45;12.10;99.90
52139;DHT22;38131;53.256;6.460;2023-05-16T15:58:59;12.10;99.90
52139;DHT22;38131;53.256;6.460;2023-05-16T16:01:25;12.10;99.90
52139;DHT22;38131;53.256;6.460;2023-05-16T16:11:19;12.20;99.90
52139;DHT22;38131;53.256;6.460;2023-05-16T16:14:05;12.10;99.90
52139;DHT22;38131;53.256;6.460;2023-05-16T16:27:40;12.20;99.90
52139;DHT22;38131;53.256;6.460;2023-05-16T16:49:04;12.50;99.90
52139;DHT22;38131;53.256;6.460;2023-05-16T16:51:37;12.40;99.90
52139;DHT22;38131;53.256;6.460;2023-05-16T17:17:27;11.90;99.90
52139;DHT22;38131;53.256;6.460;2023-05-16T17:23:35;11.00;99.90
52139;DHT22;38131;53.256;6.460;2023-05-16T17:27:04;11.40;99.90
52139;DHT22;38131;53.256;6.460;2023-05-16T17:32:59;11.40;99.90
52139;DHT22;38131;53.256;6.460;2023-05-16T17:42:50;11.80;99.90
52139;DHT22;38131;53.256;6.460;2023-05-16T18:15:05;11.70;99.90
52139;DHT22;38131;53.256;6.460;2023-05-16T18:24:59;11.50;99.90
52139;DHT22;38131;53.256;6.460;2023-05-16T18:59:43;11.20;99.90
52139;DHT22;38131;53.256;6.460;2023-05-16T19:17:49;11.10;99.90
52139;DHT22;38131;53.256;6.460;2023-05-16T19:31:35;11.50;99.90
52139;DHT22;38131;53.256;6.460;2023-05-16T19:35:00;10.00;99.90
52139;DHT22;38131;53.256;6.460;2023-05-16T19:37:27;11.00;99.90
52139;DHT22;38131;53.256;6.460;2023-05-16T19:39:58;10.70;99.90
52139;DHT22;38131;53.256;6.460;2023-05-16T19:53:32;10.50;99.90
52139;DHT22;38131;53.256;6.460;2023-05-16T20:03:52;10.60;99.90
52139;DHT22;38131;53.256;6.460;2023-05-16T20:13:32;10.60;99.90
52139;DHT22;38131;53.256;6.460;2023-05-16T20:15:58;9.80;99.90
52139;DHT22;38131;53.256;6.460;2023-05-16T20:18:42;10.70;99.90
52139;DHT22;38131;53.256;6.460;2023-05-16T20:21:14;10.60;99.90
52139;DHT22;38131;53.256;6.460;2023-05-16T20:24:04;10.60;99.90
52139;DHT22;38131;53.256;6.460;2023-05-16T20:26:31;10.60;99.90
52139;DHT22;38131;53.256;6.460;2023-05-16T20:29:45;10.60;99.90
52139;DHT22;38131;53.256;6.460;2023-05-16T20:33:00;10.40;99.90
52139;DHT22;38131;53.256;6.460;2023-05-16T20:42:34;10.70;99.90
52139;DHT22;38131;53.256;6.460;2023-05-16T20:45:04;10.00;99.90
52139;DHT22;38131;53.256;6.460;2023-05-16T20:47:30;10.70;99.90
52139;DHT22;38131;53.256;6.460;2023-05-16T20:50:24;10.70;99.90
52139;DHT22;38131;53.256;6.460;2023-05-16T20:52:50;10.70;99.90
52139;DHT22;38131;53.256;6.460;2023-05-16T20:55:18;10.60;99.90
52139;DHT22;38131;53.256;6.460;2023-05-16T21:23:48;10.70;99.90
52139;DHT22;38131;53.256;6.460;2023-05-16T21:45:18;10.70;99.90
52139;DHT22;38131;53.256;6.460;2023-05-16T21:51:54;11.40;99.90
52139;DHT22;38131;53.256;6.460;2023-05-16T21:58:20;10.20;99.90
52139;DHT22;38131;53.256;6.460;2023-05-16T22:04:56;10.00;99.90
52139;DHT22;38131;53.256;6.460;2023-05-16T22:41:53;10.10;99.90
52139;DHT22;38131;53.256;6.460;2023-05-16T22:55:45;10.20;99.90
